sensor_id;sensor_type;location;lat;lon;timestamp;pressure;altitude;pressure_sealevel;temperature;humidity
21185;BME280;18176;49.502;11.754;2023-04-16T00:01:58;96660.03;;;14.04;64.91
21185;BME280;18176;49.502;11.754;2023-04-16T00:05:59;96648.84;;;14.07;64.67
21185;BME280;18176;49.502;11.754;2023-04-16T00:09:59;96658.06;;;13.89;65.29
21185;BME280;18176;49.502;11.754;2023-04-16T00:13:59;96655.19;;;13.96;65.23
21185;BME280;18176;49.502;11.754;2023-04-16T00:18:02;96624.69;;;13.72;65.41
21185;BME280;18176;49.502;11.754;2023-04-16T00:22:02;96659.88;;;13.79;65.84
21185;BME280;18176;49.502;11.754;2023-04-16T00:26:03;96663.31;;;13.79;65.90
21185;BME280;18176;49.502;11.754;2023-04-16T00:30:04;96669.81;;;13.93;65.55
21185;BME280;18176;49.502;11.754;2023-04-16T00:34:07;96671.28;;;13.74;65.75
21185;BME280;18176;49.502;11.754;2023-04-16T00:38:08;96671.66;;;13.93;65.44
21185;BME280;18176;49.502;11.754;2023-04-16T00:42:08;96666.38;;;13.98;65.16
21185;BME280;18176;49.502;11.754;2023-04-16T00:46:08;96674.84;;;13.90;65.62
21185;BME280;18176;49.502;11.754;2023-04-16T00:50:11;96662.81;;;13.82;65.52
21185;BME280;18176;49.502;11.754;2023-04-16T00:54:12;96677.38;;;13.70;66.06
21185;BME280;18176;49.502;11.754;2023-04-16T00:58:12;96653.59;;;13.58;66.36
21185;BME280;18176;49.502;11.754;2023-04-16T01:02:12;96665.41;;;13.72;65.78
21185;BME280;18176;49.502;11.754;2023-04-16T01:06:16;96664.44;;;13.47;66.57
21185;BME280;18176;49.502;11.754;2023-04-16T01:10:18;96670.13;;;13.65;66.26
21185;BME280;18176;49.502;11.754;2023-04-16T01:14:18;96673.69;;;13.76;66.31
21185;BME280;18176;49.502;11.754;2023-04-16T01:18:21;96630.28;;;13.38;66.42
21185;BME280;18176;49.502;11.754;2023-04-16T01:22:24;96680.00;;;13.65;66.42
21185;BME280;18176;49.502;11.754;2023-04-16T01:26:24;96674.19;;;13.73;66.44
21185;BME280;18176;49.502;11.754;2023-04-16T01:30:27;96661.19;;;13.40;67.30
21185;BME280;18176;49.502;11.754;2023-04-16T01:34:45;96653.38;;;13.33;67.31
21185;BME280;18176;49.502;11.754;2023-04-16T01:38:48;96677.47;;;13.48;66.91
21185;BME280;18176;49.502;11.754;2023-04-16T01:42:49;96672.88;;;13.38;67.43
21185;BME280;18176;49.502;11.754;2023-04-16T01:46:50;96649.03;;;13.22;67.25
21185;BME280;18176;49.502;11.754;2023-04-16T01:50:51;96674.47;;;13.40;67.22
21185;BME280;18176;49.502;11.754;2023-04-16T01:54:53;96691.97;;;13.30;67.68
21185;BME280;18176;49.502;11.754;2023-04-16T01:58:54;96682.97;;;13.36;67.52
21185;BME280;18176;49.502;11.754;2023-04-16T02:02:58;96686.66;;;13.35;67.68
21185;BME280;18176;49.502;11.754;2023-04-16T02:06:59;96697.88;;;13.38;67.28
21185;BME280;18176;49.502;11.754;2023-04-16T02:11:01;96681.81;;;13.27;67.73
21185;BME280;18176;49.502;11.754;2023-04-16T02:15:02;96692.56;;;13.38;67.59
21185;BME280;18176;49.502;11.754;2023-04-16T02:19:02;96692.84;;;13.41;67.45
21185;BME280;18176;49.502;11.754;2023-04-16T02:23:05;96694.88;;;13.29;67.68
21185;BME280;18176;49.502;11.754;2023-04-16T02:27:08;96689.31;;;13.62;66.69
21185;BME280;18176;49.502;11.754;2023-04-16T02:31:09;96693.72;;;13.52;66.70
21185;BME280;18176;49.502;11.754;2023-04-16T02:35:15;96637.94;;;13.03;67.28
21185;BME280;18176;49.502;11.754;2023-04-16T02:39:16;96696.38;;;13.47;67.08
21185;BME280;18176;49.502;11.754;2023-04-16T02:43:18;96688.03;;;13.38;66.86
21185;BME280;18176;49.502;11.754;2023-04-16T02:47:18;96701.66;;;13.42;67.00
21185;BME280;18176;49.502;11.754;2023-04-16T02:51:19;96709.88;;;13.72;66.30
21185;BME280;18176;49.502;11.754;2023-04-16T02:55:19;96720.34;;;13.52;67.04
21185;BME280;18176;49.502;11.754;2023-04-16T02:59:22;96687.63;;;13.51;66.40
21185;BME280;18176;49.502;11.754;2023-04-16T03:03:23;96710.16;;;13.75;66.12
21185;BME280;18176;49.502;11.754;2023-04-16T03:07:23;96722.06;;;13.63;66.60
21185;BME280;18176;49.502;11.754;2023-04-16T03:11:23;96717.72;;;13.57;66.85
21185;BME280;18176;49.502;11.754;2023-04-16T03:15:26;96721.16;;;13.52;67.16
21185;BME280;18176;49.502;11.754;2023-04-16T03:19:27;96713.50;;;13.61;66.85
21185;BME280;18176;49.502;11.754;2023-04-16T03:23:27;96715.50;;;13.75;65.85
21185;BME280;18176;49.502;11.754;2023-04-16T03:27:27;96722.66;;;13.70;66.30
21185;BME280;18176;49.502;11.754;2023-04-16T03:31:30;96715.53;;;13.49;66.91
21185;BME280;18176;49.502;11.754;2023-04-16T03:35:31;96714.53;;;13.55;66.49
21185;BME280;18176;49.502;11.754;2023-04-16T03:39:32;96723.38;;;13.60;66.36
21185;BME280;18176;49.502;11.754;2023-04-16T03:43:33;96726.63;;;13.72;65.96
21185;BME280;18176;49.502;11.754;2023-04-16T03:47:36;96741.31;;;13.75;66.10
21185;BME280;18176;49.502;11.754;2023-04-16T03:51:38;96732.19;;;13.66;66.08
21185;BME280;18176;49.502;11.754;2023-04-16T03:55:38;96743.16;;;13.69;66.26
21185;BME280;18176;49.502;11.754;2023-04-16T03:59:39;96750.53;;;13.94;65.39
21185;BME280;18176;49.502;11.754;2023-04-16T04:03:42;96754.75;;;13.90;65.60
21185;BME280;18176;49.502;11.754;2023-04-16T04:07:43;96757.38;;;13.85;65.55
21185;BME280;18176;49.502;11.754;2023-04-16T04:11:44;96685.19;;;13.50;65.36
21185;BME280;18176;49.502;11.754;2023-04-16T04:15:44;96758.47;;;13.89;65.76
21185;BME280;18176;49.502;11.754;2023-04-16T04:19:47;96762.34;;;13.71;66.36
21185;BME280;18176;49.502;11.754;2023-04-16T04:23:59;96762.00;;;13.63;66.69
21185;BME280;18176;49.502;11.754;2023-04-16T04:28:02;96762.41;;;13.81;65.91
21185;BME280;18176;49.502;11.754;2023-04-16T04:32:03;96757.22;;;13.65;66.58
21185;BME280;18176;49.502;11.754;2023-04-16T04:36:07;96770.69;;;13.85;66.47
21185;BME280;18176;49.502;11.754;2023-04-16T04:40:09;96775.53;;;13.88;66.25
21185;BME280;18176;49.502;11.754;2023-04-16T04:44:09;96777.81;;;13.74;66.93
21185;BME280;18176;49.502;11.754;2023-04-16T04:48:11;96778.63;;;13.80;66.76
21185;BME280;18176;49.502;11.754;2023-04-16T04:52:14;96790.03;;;14.02;66.04
21185;BME280;18176;49.502;11.754;2023-04-16T04:56:14;96793.81;;;14.11;65.86
21185;BME280;18176;49.502;11.754;2023-04-16T05:00:15;96795.84;;;13.99;65.83
21185;BME280;18176;49.502;11.754;2023-04-16T05:04:24;96801.69;;;13.96;66.14
21185;BME280;18176;49.502;11.754;2023-04-16T05:08:26;96808.03;;;13.90;66.53
21185;BME280;18176;49.502;11.754;2023-04-16T05:12:26;96776.69;;;13.70;66.07
21185;BME280;18176;49.502;11.754;2023-04-16T05:16:27;96811.13;;;13.82;66.51
21185;BME280;18176;49.502;11.754;2023-04-16T05:20:27;96824.00;;;13.90;66.08
21185;BME280;18176;49.502;11.754;2023-04-16T05:24:30;96823.25;;;13.68;67.16
21185;BME280;18176;49.502;11.754;2023-04-16T05:28:30;96832.44;;;13.82;66.83
21185;BME280;18176;49.502;11.754;2023-04-16T05:32:30;96833.16;;;13.99;66.08
21185;BME280;18176;49.502;11.754;2023-04-16T05:36:30;96816.19;;;13.78;66.62
21185;BME280;18176;49.502;11.754;2023-04-16T05:40:36;96816.78;;;13.85;66.45
21185;BME280;18176;49.502;11.754;2023-04-16T05:44:36;96808.47;;;13.82;66.63
21185;BME280;18176;49.502;11.754;2023-04-16T05:48:36;96824.69;;;14.07;66.56
21185;BME280;18176;49.502;11.754;2023-04-16T05:52:37;96807.69;;;14.13;66.06
21185;BME280;18176;49.502;11.754;2023-04-16T05:56:40;96842.56;;;14.38;66.41
21185;BME280;18176;49.502;11.754;2023-04-16T06:00:40;96840.94;;;14.37;66.32
21185;BME280;18176;49.502;11.754;2023-04-16T06:04:40;96844.78;;;14.51;66.45
21185;BME280;18176;49.502;11.754;2023-04-16T06:08:40;96853.78;;;14.82;65.20
21185;BME280;18176;49.502;11.754;2023-04-16T06:12:43;96854.22;;;14.69;65.57
21185;BME280;18176;49.502;11.754;2023-04-16T06:16:43;96842.31;;;14.82;65.63
21185;BME280;18176;49.502;11.754;2023-04-16T06:20:44;96856.50;;;14.97;64.85
21185;BME280;18176;49.502;11.754;2023-04-16T06:24:44;96865.13;;;15.09;64.95
21185;BME280;18176;49.502;11.754;2023-04-16T06:28:47;96861.94;;;15.12;65.19
21185;BME280;18176;49.502;11.754;2023-04-16T06:32:47;96855.66;;;14.87;65.75
21185;BME280;18176;49.502;11.754;2023-04-16T06:36:48;96875.00;;;15.09;65.22
21185;BME280;18176;49.502;11.754;2023-04-16T06:40:48;96868.41;;;15.31;64.13
21185;BME280;18176;49.502;11.754;2023-04-16T06:44:51;96871.41;;;15.40;63.93
21185;BME280;18176;49.502;11.754;2023-04-16T06:48:51;96875.22;;;15.59;63.55
21185;BME280;18176;49.502;11.754;2023-04-16T06:52:51;96860.31;;;15.73;62.72
21185;BME280;18176;49.502;11.754;2023-04-16T06:56:51;96847.47;;;15.60;61.93
21185;BME280;18176;49.502;11.754;2023-04-16T07:00:54;96873.69;;;15.78;61.96
21185;BME280;18176;49.502;11.754;2023-04-16T07:04:55;96892.41;;;15.93;61.66
21185;BME280;18176;49.502;11.754;2023-04-16T07:08:55;96874.81;;;16.23;62.07
21185;BME280;18176;49.502;11.754;2023-04-16T07:12:55;96878.59;;;16.52;61.08
21185;BME280;18176;49.502;11.754;2023-04-16T07:17:00;96887.69;;;16.51;60.33
21185;BME280;18176;49.502;11.754;2023-04-16T07:21:00;96887.13;;;16.29;60.14
21185;BME280;18176;49.502;11.754;2023-04-16T07:25:01;96886.59;;;16.11;60.02
21185;BME280;18176;49.502;11.754;2023-04-16T07:29:01;96901.28;;;16.29;59.46
21185;BME280;18176;49.502;11.754;2023-04-16T07:33:05;96888.19;;;16.17;59.43
21185;BME280;18176;49.502;11.754;2023-04-16T07:37:05;96888.19;;;16.38;59.24
21185;BME280;18176;49.502;11.754;2023-04-16T07:41:05;96894.06;;;16.95;58.91
21185;BME280;18176;49.502;11.754;2023-04-16T07:45:07;96903.09;;;17.24;57.25
21185;BME280;18176;49.502;11.754;2023-04-16T07:49:10;96902.56;;;17.22;56.18
21185;BME280;18176;49.502;11.754;2023-04-16T07:53:10;96906.91;;;16.43;56.31
21185;BME280;18176;49.502;11.754;2023-04-16T07:57:11;96916.03;;;16.72;57.06
21185;BME280;18176;49.502;11.754;2023-04-16T08:01:11;96899.97;;;16.82;57.11
21185;BME280;18176;49.502;11.754;2023-04-16T08:05:14;96914.41;;;16.91;57.26
21185;BME280;18176;49.502;11.754;2023-04-16T08:09:14;96917.66;;;16.73;58.01
21185;BME280;18176;49.502;11.754;2023-04-16T08:13:14;96928.59;;;16.76;56.30
21185;BME280;18176;49.502;11.754;2023-04-16T08:17:15;96924.59;;;16.89;56.26
21185;BME280;18176;49.502;11.754;2023-04-16T08:21:18;96910.16;;;16.80;54.88
21185;BME280;18176;49.502;11.754;2023-04-16T08:25:18;96921.38;;;16.92;56.13
21185;BME280;18176;49.502;11.754;2023-04-16T08:29:19;96930.94;;;17.28;54.73
21185;BME280;18176;49.502;11.754;2023-04-16T08:33:22;96922.31;;;17.57;54.26
21185;BME280;18176;49.502;11.754;2023-04-16T08:37:25;96928.94;;;17.74;54.11
21185;BME280;18176;49.502;11.754;2023-04-16T08:41:26;96941.91;;;18.06;53.30
21185;BME280;18176;49.502;11.754;2023-04-16T08:45:32;96948.94;;;17.92;53.67
21185;BME280;18176;49.502;11.754;2023-04-16T08:49:35;96944.50;;;18.21;51.79
21185;BME280;18176;49.502;11.754;2023-04-16T08:53:51;96947.59;;;17.89;51.21
21185;BME280;18176;49.502;11.754;2023-04-16T08:57:57;96966.38;;;18.38;52.09
21185;BME280;18176;49.502;11.754;2023-04-16T09:02:00;96956.50;;;18.72;51.10
21185;BME280;18176;49.502;11.754;2023-04-16T09:06:03;96959.00;;;18.92;50.91
21185;BME280;18176;49.502;11.754;2023-04-16T09:10:09;96964.06;;;19.28;49.49
21185;BME280;18176;49.502;11.754;2023-04-16T09:14:10;96976.25;;;19.49;48.21
21185;BME280;18176;49.502;11.754;2023-04-16T09:18:11;96977.53;;;19.23;49.03
21185;BME280;18176;49.502;11.754;2023-04-16T09:22:12;96976.28;;;19.44;47.44
21185;BME280;18176;49.502;11.754;2023-04-16T09:26:16;96980.19;;;18.99;48.51
21185;BME280;18176;49.502;11.754;2023-04-16T09:30:22;96981.69;;;19.39;49.66
21185;BME280;18176;49.502;11.754;2023-04-16T09:34:23;96981.16;;;19.66;47.08
21185;BME280;18176;49.502;11.754;2023-04-16T09:38:23;96990.25;;;19.93;47.31
21185;BME280;18176;49.502;11.754;2023-04-16T09:42:29;96992.28;;;20.01;47.52
21185;BME280;18176;49.502;11.754;2023-04-16T09:46:33;96981.03;;;19.99;47.60
21185;BME280;18176;49.502;11.754;2023-04-16T09:50:34;96985.97;;;19.45;46.81
21185;BME280;18176;49.502;11.754;2023-04-16T09:54:34;96995.47;;;19.04;47.70
21185;BME280;18176;49.502;11.754;2023-04-16T09:58:41;97001.66;;;18.60;49.40
21185;BME280;18176;49.502;11.754;2023-04-16T10:02:42;97007.91;;;17.92;50.37
21185;BME280;18176;49.502;11.754;2023-04-16T10:07:02;96996.22;;;17.68;50.92
21185;BME280;18176;49.502;11.754;2023-04-16T10:11:03;97011.53;;;17.47;51.38
21185;BME280;18176;49.502;11.754;2023-04-16T10:15:07;97006.97;;;17.42;51.99
21185;BME280;18176;49.502;11.754;2023-04-16T10:19:08;97002.97;;;17.30;51.50
21185;BME280;18176;49.502;11.754;2023-04-16T10:23:09;97004.56;;;17.51;51.86
21185;BME280;18176;49.502;11.754;2023-04-16T10:27:10;97006.97;;;17.32;51.03
21185;BME280;18176;49.502;11.754;2023-04-16T10:31:13;97014.47;;;17.40;51.37
21185;BME280;18176;49.502;11.754;2023-04-16T10:35:18;97016.66;;;16.98;52.24
21185;BME280;18176;49.502;11.754;2023-04-16T10:39:21;97010.50;;;16.98;52.56
21185;BME280;18176;49.502;11.754;2023-04-16T10:43:24;97010.22;;;16.89;52.60
21185;BME280;18176;49.502;11.754;2023-04-16T10:47:28;97016.94;;;16.92;52.70
21185;BME280;18176;49.502;11.754;2023-04-16T10:51:31;97020.66;;;16.65;53.45
21185;BME280;18176;49.502;11.754;2023-04-16T10:55:32;97033.13;;;16.35;55.24
21185;BME280;18176;49.502;11.754;2023-04-16T10:59:37;97033.13;;;16.35;55.06
21185;BME280;18176;49.502;11.754;2023-04-16T11:03:46;97048.00;;;16.05;57.29
21185;BME280;18176;49.502;11.754;2023-04-16T11:07:47;97046.50;;;16.30;55.84
21185;BME280;18176;49.502;11.754;2023-04-16T11:11:48;97041.91;;;16.20;56.12
21185;BME280;18176;49.502;11.754;2023-04-16T11:15:48;97022.06;;;16.01;57.07
21185;BME280;18176;49.502;11.754;2023-04-16T11:19:52;97041.06;;;16.14;56.78
21185;BME280;18176;49.502;11.754;2023-04-16T11:23:53;97047.34;;;16.50;55.92
21185;BME280;18176;49.502;11.754;2023-04-16T11:27:53;97048.19;;;16.61;55.33
21185;BME280;18176;49.502;11.754;2023-04-16T11:31:55;97051.16;;;16.69;54.60
21185;BME280;18176;49.502;11.754;2023-04-16T11:36:00;97052.53;;;16.87;53.87
21185;BME280;18176;49.502;11.754;2023-04-16T11:40:02;97057.34;;;17.00;53.07
21185;BME280;18176;49.502;11.754;2023-04-16T11:44:17;97049.03;;;17.32;52.53
21185;BME280;18176;49.502;11.754;2023-04-16T11:48:18;97056.28;;;17.26;52.24
21185;BME280;18176;49.502;11.754;2023-04-16T11:52:30;97059.75;;;17.22;52.52
21185;BME280;18176;49.502;11.754;2023-04-16T11:56:35;97059.47;;;17.48;52.59
21185;BME280;18176;49.502;11.754;2023-04-16T12:00:36;97056.13;;;18.07;52.24
21185;BME280;18176;49.502;11.754;2023-04-16T12:04:36;97030.38;;;18.11;50.46
21185;BME280;18176;49.502;11.754;2023-04-16T12:08:39;97053.56;;;18.89;49.59
21185;BME280;18176;49.502;11.754;2023-04-16T12:12:39;97055.41;;;19.28;47.34
21185;BME280;18176;49.502;11.754;2023-04-16T12:16:39;97054.28;;;18.61;47.73
21185;BME280;18176;49.502;11.754;2023-04-16T12:20:40;97049.47;;;18.97;48.63
21185;BME280;18176;49.502;11.754;2023-04-16T12:24:43;97054.69;;;19.80;47.32
21185;BME280;18176;49.502;11.754;2023-04-16T12:28:44;97059.38;;;20.16;45.38
21185;BME280;18176;49.502;11.754;2023-04-16T12:32:47;97061.00;;;20.78;44.91
21185;BME280;18176;49.502;11.754;2023-04-16T12:37:02;97050.81;;;21.45;42.24
21185;BME280;18176;49.502;11.754;2023-04-16T12:41:05;97047.53;;;21.94;41.51
21185;BME280;18176;49.502;11.754;2023-04-16T12:45:06;97052.06;;;21.80;40.93
21185;BME280;18176;49.502;11.754;2023-04-16T12:49:08;97051.97;;;20.88;42.76
21185;BME280;18176;49.502;11.754;2023-04-16T12:53:08;97056.16;;;21.63;42.98
21185;BME280;18176;49.502;11.754;2023-04-16T12:57:11;97043.81;;;22.17;40.58
21185;BME280;18176;49.502;11.754;2023-04-16T13:01:12;97053.72;;;22.08;40.74
21185;BME280;18176;49.502;11.754;2023-04-16T13:05:12;97048.69;;;22.15;39.99
21185;BME280;18176;49.502;11.754;2023-04-16T13:09:15;97038.00;;;23.75;37.86
21185;BME280;18176;49.502;11.754;2023-04-16T13:13:19;97044.22;;;24.80;36.00
21185;BME280;18176;49.502;11.754;2023-04-16T13:17:19;97034.38;;;25.82;34.09
21185;BME280;18176;49.502;11.754;2023-04-16T13:21:20;97041.41;;;26.29;34.52
21185;BME280;18176;49.502;11.754;2023-04-16T13:25:20;97040.03;;;26.06;33.92
21185;BME280;18176;49.502;11.754;2023-04-16T13:29:23;97033.69;;;25.30;35.35
21185;BME280;18176;49.502;11.754;2023-04-16T13:33:23;97040.09;;;25.25;35.37
21185;BME280;18176;49.502;11.754;2023-04-16T13:37:24;97046.63;;;25.16;34.34
21185;BME280;18176;49.502;11.754;2023-04-16T13:41:25;97046.75;;;25.36;34.89
21185;BME280;18176;49.502;11.754;2023-04-16T13:45:29;97043.09;;;25.49;33.78
21185;BME280;18176;49.502;11.754;2023-04-16T13:49:29;97041.22;;;25.07;34.63
21185;BME280;18176;49.502;11.754;2023-04-16T13:53:32;97042.00;;;25.97;34.14
21185;BME280;18176;49.502;11.754;2023-04-16T13:57:32;97037.22;;;25.94;33.09
21185;BME280;18176;49.502;11.754;2023-04-16T14:01:35;97035.13;;;25.44;34.43
21185;BME280;18176;49.502;11.754;2023-04-16T14:05:35;97045.84;;;24.24;34.71
21185;BME280;18176;49.502;11.754;2023-04-16T14:09:37;97036.84;;;24.72;33.45
21185;BME280;18176;49.502;11.754;2023-04-16T14:13:38;97031.41;;;23.98;34.92
21185;BME280;18176;49.502;11.754;2023-04-16T14:17:41;97029.78;;;23.97;34.71
21185;BME280;18176;49.502;11.754;2023-04-16T14:21:41;97029.44;;;24.29;34.65
21185;BME280;18176;49.502;11.754;2023-04-16T14:25:41;97030.50;;;24.11;34.18
21185;BME280;18176;49.502;11.754;2023-04-16T14:29:42;97032.38;;;22.96;35.15
21185;BME280;18176;49.502;11.754;2023-04-16T14:33:45;97018.06;;;22.96;35.14
21185;BME280;18176;49.502;11.754;2023-04-16T14:37:46;97019.22;;;22.81;35.78
21185;BME280;18176;49.502;11.754;2023-04-16T14:41:46;97031.28;;;22.48;37.31
21185;BME280;18176;49.502;11.754;2023-04-16T14:45:47;97029.78;;;22.56;36.85
21185;BME280;18176;49.502;11.754;2023-04-16T14:49:50;97028.88;;;21.79;37.67
21185;BME280;18176;49.502;11.754;2023-04-16T14:53:50;97024.78;;;21.67;38.65
21185;BME280;18176;49.502;11.754;2023-04-16T14:57:50;97034.06;;;21.61;39.05
21185;BME280;18176;49.502;11.754;2023-04-16T15:01:53;97040.56;;;21.28;39.94
21185;BME280;18176;49.502;11.754;2023-04-16T15:05:56;97044.00;;;21.34;40.32
21185;BME280;18176;49.502;11.754;2023-04-16T15:09:56;97026.47;;;21.63;39.71
21185;BME280;18176;49.502;11.754;2023-04-16T15:13:57;97040.84;;;22.54;38.33
21185;BME280;18176;49.502;11.754;2023-04-16T15:17:57;97044.84;;;22.70;37.63
21185;BME280;18176;49.502;11.754;2023-04-16T15:22:00;97043.06;;;22.52;37.71
21185;BME280;18176;49.502;11.754;2023-04-16T15:26:00;97038.53;;;21.98;38.57
21185;BME280;18176;49.502;11.754;2023-04-16T15:30:01;97032.72;;;21.91;39.15
21185;BME280;18176;49.502;11.754;2023-04-16T15:34:02;97051.19;;;21.06;39.81
21185;BME280;18176;49.502;11.754;2023-04-16T15:38:05;97060.13;;;21.20;40.56
21185;BME280;18176;49.502;11.754;2023-04-16T15:42:06;97058.06;;;20.75;40.88
21185;BME280;18176;49.502;11.754;2023-04-16T15:46:07;97056.75;;;20.54;40.94
21185;BME280;18176;49.502;11.754;2023-04-16T15:50:08;97043.66;;;20.66;41.27
21185;BME280;18176;49.502;11.754;2023-04-16T15:54:11;97046.22;;;20.76;41.40
21185;BME280;18176;49.502;11.754;2023-04-16T15:58:11;97074.25;;;21.12;41.07
21185;BME280;18176;49.502;11.754;2023-04-16T16:02:11;97067.78;;;21.45;40.00
21185;BME280;18176;49.502;11.754;2023-04-16T16:06:12;97064.28;;;21.91;39.18
21185;BME280;18176;49.502;11.754;2023-04-16T16:10:16;97060.06;;;22.66;38.40
21185;BME280;18176;49.502;11.754;2023-04-16T16:14:17;97058.41;;;22.92;37.34
21185;BME280;18176;49.502;11.754;2023-04-16T16:18:17;97064.63;;;22.79;37.04
21185;BME280;18176;49.502;11.754;2023-04-16T16:22:18;97069.28;;;22.38;37.45
21185;BME280;18176;49.502;11.754;2023-04-16T16:26:22;97077.28;;;21.89;38.74
21185;BME280;18176;49.502;11.754;2023-04-16T16:30:23;97071.78;;;20.97;40.96
21185;BME280;18176;49.502;11.754;2023-04-16T16:34:23;97088.50;;;20.57;41.10
21185;BME280;18176;49.502;11.754;2023-04-16T16:38:24;97086.34;;;20.11;41.33
21185;BME280;18176;49.502;11.754;2023-04-16T16:42:27;97085.06;;;19.51;41.97
21185;BME280;18176;49.502;11.754;2023-04-16T16:46:27;97093.56;;;19.25;43.11
21185;BME280;18176;49.502;11.754;2023-04-16T16:50:30;97096.91;;;19.12;43.87
21185;BME280;18176;49.502;11.754;2023-04-16T16:54:30;97093.31;;;18.87;44.00
21185;BME280;18176;49.502;11.754;2023-04-16T16:58:33;97111.84;;;18.89;44.21
21185;BME280;18176;49.502;11.754;2023-04-16T17:02:33;97116.50;;;18.68;45.17
21185;BME280;18176;49.502;11.754;2023-04-16T17:06:36;97102.19;;;18.24;46.62
21185;BME280;18176;49.502;11.754;2023-04-16T17:10:39;97090.19;;;18.11;47.28
21185;BME280;18176;49.502;11.754;2023-04-16T17:14:42;97110.81;;;18.11;47.67
21185;BME280;18176;49.502;11.754;2023-04-16T17:18:44;97126.41;;;18.04;47.86
21185;BME280;18176;49.502;11.754;2023-04-16T17:22:44;97127.50;;;17.88;48.43
21185;BME280;18176;49.502;11.754;2023-04-16T17:26:44;97126.44;;;17.79;49.22
21185;BME280;18176;49.502;11.754;2023-04-16T17:30:50;97129.69;;;17.66;49.44
21185;BME280;18176;49.502;11.754;2023-04-16T17:34:54;97137.13;;;17.38;50.69
21185;BME280;18176;49.502;11.754;2023-04-16T17:38:54;97114.63;;;16.99;51.94
21185;BME280;18176;49.502;11.754;2023-04-16T17:42:56;97132.31;;;17.20;51.99
21185;BME280;18176;49.502;11.754;2023-04-16T17:46:59;97125.34;;;17.09;51.87
21185;BME280;18176;49.502;11.754;2023-04-16T17:50:59;97152.66;;;17.11;52.61
21185;BME280;18176;49.502;11.754;2023-04-16T17:55:09;97153.69;;;16.95;52.97
21185;BME280;18176;49.502;11.754;2023-04-16T17:59:09;97171.91;;;16.98;53.55
21185;BME280;18176;49.502;11.754;2023-04-16T18:03:12;97165.19;;;16.91;53.68
21185;BME280;18176;49.502;11.754;2023-04-16T18:07:14;97168.41;;;16.93;53.85
21185;BME280;18176;49.502;11.754;2023-04-16T18:11:15;97174.44;;;16.58;54.99
21185;BME280;18176;49.502;11.754;2023-04-16T18:15:15;97175.56;;;16.67;54.52
21185;BME280;18176;49.502;11.754;2023-04-16T18:19:18;97145.63;;;16.18;55.57
21185;BME280;18176;49.502;11.754;2023-04-16T18:23:19;97188.22;;;16.30;55.73
21185;BME280;18176;49.502;11.754;2023-04-16T18:27:19;97162.44;;;16.08;56.04
21185;BME280;18176;49.502;11.754;2023-04-16T18:31:20;97175.63;;;16.25;55.94
21185;BME280;18176;49.502;11.754;2023-04-16T18:35:23;97191.34;;;15.80;57.48
21185;BME280;18176;49.502;11.754;2023-04-16T18:39:24;97197.34;;;15.60;58.41
21185;BME280;18176;49.502;11.754;2023-04-16T18:43:24;97200.34;;;15.69;58.17
21185;BME280;18176;49.502;11.754;2023-04-16T18:47:24;97215.97;;;15.50;58.84
21185;BME280;18176;49.502;11.754;2023-04-16T18:51:27;97178.81;;;15.22;58.72
21185;BME280;18176;49.502;11.754;2023-04-16T18:55:30;97210.06;;;15.48;58.81
21185;BME280;18176;49.502;11.754;2023-04-16T18:59:31;97236.66;;;15.65;58.61
21185;BME280;18176;49.502;11.754;2023-04-16T19:03:31;97230.81;;;15.68;58.72
21185;BME280;18176;49.502;11.754;2023-04-16T19:07:34;97249.59;;;15.78;58.74
21185;BME280;18176;49.502;11.754;2023-04-16T19:11:34;97238.41;;;15.49;59.44
21185;BME280;18176;49.502;11.754;2023-04-16T19:15:34;97233.66;;;15.56;58.96
21185;BME280;18176;49.502;11.754;2023-04-16T19:19:35;97250.84;;;15.43;59.76
21185;BME280;18176;49.502;11.754;2023-04-16T19:23:37;97232.16;;;15.43;59.71
21185;BME280;18176;49.502;11.754;2023-04-16T19:27:38;97248.06;;;15.55;59.46
21185;BME280;18176;49.502;11.754;2023-04-16T19:31:38;97258.13;;;15.48;59.89
21185;BME280;18176;49.502;11.754;2023-04-16T19:35:41;97255.47;;;15.48;59.54
21185;BME280;18176;49.502;11.754;2023-04-16T19:39:44;97263.06;;;15.61;59.01
21185;BME280;18176;49.502;11.754;2023-04-16T19:43:44;97254.81;;;15.63;58.94
21185;BME280;18176;49.502;11.754;2023-04-16T19:47:44;97269.44;;;15.55;59.16
21185;BME280;18176;49.502;11.754;2023-04-16T19:51:47;97267.50;;;15.51;59.26
21185;BME280;18176;49.502;11.754;2023-04-16T19:55:50;97239.28;;;15.33;58.78
21185;BME280;18176;49.502;11.754;2023-04-16T19:59:50;97267.72;;;15.44;58.61
21185;BME280;18176;49.502;11.754;2023-04-16T20:03:51;97220.97;;;15.20;58.53
21185;BME280;18176;49.502;11.754;2023-04-16T20:07:51;97277.38;;;15.50;58.33
21185;BME280;18176;49.502;11.754;2023-04-16T20:11:54;97281.13;;;15.49;58.52
21185;BME280;18176;49.502;11.754;2023-04-16T20:15:54;97264.91;;;15.34;58.75
21185;BME280;18176;49.502;11.754;2023-04-16T20:19:55;97278.19;;;15.51;58.79
21185;BME280;18176;49.502;11.754;2023-04-16T20:23:57;97278.00;;;15.57;58.42
21185;BME280;18176;49.502;11.754;2023-04-16T20:28:01;97286.75;;;15.53;58.63
21185;BME280;18176;49.502;11.754;2023-04-16T20:32:02;97275.25;;;15.52;59.07
21185;BME280;18176;49.502;11.754;2023-04-16T20:36:02;97258.53;;;15.35;59.12
21185;BME280;18176;49.502;11.754;2023-04-16T20:40:04;97273.66;;;15.51;59.01
21185;BME280;18176;49.502;11.754;2023-04-16T20:44:07;97264.56;;;15.52;59.04
21185;BME280;18176;49.502;11.754;2023-04-16T20:48:15;97259.75;;;15.49;59.01
21185;BME280;18176;49.502;11.754;2023-04-16T20:52:15;97276.88;;;15.53;59.03
21185;BME280;18176;49.502;11.754;2023-04-16T20:56:15;97245.16;;;15.35;58.63
21185;BME280;18176;49.502;11.754;2023-04-16T21:00:19;97268.81;;;15.48;58.64
21185;BME280;18176;49.502;11.754;2023-04-16T21:04:20;97266.16;;;15.48;58.47